createdAt,value
2022-10-28T05:36:56.452Z,17.41
2022-10-28T05:39:22.985Z,17.40
2022-10-28T05:41:49.563Z,17.33
2022-10-28T05:44:16.174Z,17.33
2022-10-28T05:46:42.666Z,17.26
2022-10-28T05:49:09.199Z,17.42
2022-10-28T05:51:35.725Z,17.31
2022-10-28T05:54:02.218Z,17.30
2022-10-28T05:56:28.783Z,17.30
2022-10-28T05:58:55.374Z,17.34
2022-10-28T06:01:21.945Z,17.36
2022-10-28T06:03:48.518Z,17.31
2022-10-28T20:34:49.957Z,20.49
2022-10-28T20:37:16.539Z,20.56
2022-10-28T20:39:43.157Z,20.42
2022-10-28T20:42:09.677Z,20.42
2022-10-28T20:44:36.128Z,20.28
2022-10-28T20:47:02.654Z,20.22
2022-10-28T20:49:29.189Z,20.25
2022-10-28T20:51:55.653Z,20.23
2022-10-28T20:54:22.178Z,20.20
2022-10-28T20:56:48.777Z,20.22
2022-10-28T20:59:15.306Z,20.07
2022-10-28T21:01:42.086Z,20.00
2022-10-28T21:04:10.717Z,20.03
2022-10-28T21:06:38.091Z,20.13
2022-10-28T21:09:08.694Z,20.03
2022-10-28T21:11:35.330Z,19.97
2022-10-28T21:14:02.041Z,19.98
2022-10-28T21:16:29.662Z,19.96
2022-10-28T21:18:56.187Z,19.91
2022-10-28T21:21:23.655Z,19.98
2022-10-28T21:23:50.349Z,19.83
2022-10-28T21:26:17.157Z,19.81
2022-10-28T21:28:43.734Z,19.76
2022-10-28T21:31:12.940Z,19.70
2022-10-28T21:33:40.160Z,19.73
2022-10-28T21:36:12.560Z,19.77
2022-10-28T21:38:39.308Z,19.75
2022-10-28T21:41:16.764Z,19.69
2022-10-28T21:43:45.123Z,19.64
2022-10-28T21:46:11.721Z,19.52
2022-10-28T21:48:39.009Z,19.62
2022-10-28T21:51:11.617Z,19.54
2022-10-28T21:53:41.470Z,19.50
2022-10-28T21:56:15.398Z,19.62
2022-10-28T21:58:43.121Z,19.57
2022-10-28T22:01:12.456Z,19.47
2022-10-28T22:03:39.405Z,19.46
2022-10-28T22:06:06.376Z,19.50
2022-10-28T22:08:33.362Z,19.55
2022-10-28T22:11:15.110Z,19.43
2022-10-28T22:13:41.730Z,19.35
2022-10-28T22:16:11.421Z,19.37
2022-10-28T22:18:38.507Z,19.29
2022-10-28T22:21:11.694Z,19.30
2022-10-28T22:23:38.991Z,19.28
2022-10-28T22:26:10.835Z,19.23
2022-10-28T22:28:37.707Z,19.19
2022-10-28T22:31:09.120Z,19.20
2022-10-28T22:33:36.215Z,19.10
2022-10-28T22:36:05.423Z,19.09
2022-10-28T22:38:32.065Z,19.02
2022-10-28T22:41:07.684Z,18.94
2022-10-28T22:43:34.286Z,19.04
2022-10-28T22:46:01.472Z,19.02
2022-10-28T22:48:28.356Z,18.96
2022-10-28T22:50:55.063Z,19.01
2022-10-28T22:53:21.894Z,19.00
2022-10-28T22:55:49.031Z,19.01
2022-10-28T22:58:16.282Z,18.94
2022-10-28T23:00:43.096Z,18.97
2022-10-28T23:03:09.636Z,18.91
2022-10-28T23:05:36.113Z,18.90
2022-10-28T23:08:02.622Z,18.85
2022-10-28T23:10:29.615Z,18.82
2022-10-28T23:12:57.384Z,18.81
2022-10-28T23:15:24.427Z,18.80
2022-10-28T23:17:51.587Z,18.81
2022-10-28T23:20:19.567Z,18.80
2022-10-28T23:22:46.560Z,18.74
2022-10-28T23:25:13.380Z,18.78
2022-10-28T23:27:40.706Z,18.77
2022-10-28T23:30:09.072Z,18.66
2022-10-28T23:32:35.556Z,18.64
2022-10-28T23:35:02.231Z,18.62
2022-10-28T23:37:28.732Z,18.62
2022-10-28T23:39:55.213Z,18.59
2022-10-28T23:42:21.757Z,18.62
2022-10-28T23:44:48.397Z,18.67
2022-10-28T23:47:14.956Z,18.61
2022-10-28T23:49:41.415Z,18.61
2022-10-28T23:52:07.964Z,18.56
2022-10-28T23:54:34.433Z,18.54
2022-10-28T23:57:00.911Z,18.50
2022-10-28T23:59:27.372Z,18.48
